Aviation Digital Data Service (ADDS)

Output produced by METARs form (1809 UTC 14 August 2018)
found at http://www.aviationweather.gov/adds/metars/
 
TAF HADR 141530Z 1418/1524 15012KT 9000 RA SCT030 SCT080 
     BECMG 1420/1423 22012KT 8000 SHRA OVC020
       
HAAB 141700Z 25006KT 9999 BKN025 16/13 Q1026
TAF HAAB 141530Z 1418/1524 24010KT 9000 RA SCT030 BKN080 
     BECMG 1417/1422 34008KT 8000 SHRA BKN020 OVC070
       
HAMK 141300Z 00000KT 5000RATS FEWCB020 BKN021 16/16 Q1026